Time;durP1;ratioP1;P1;durP2;ratioP2;P2;SDS_P1;SDS_P2;PMS_P1;PMS_P2;Temp;Humidity;BMP_temperature;BMP_pressure;BME280_temperature;BME280_humidity;BME280_pressure;Samples;Min_cycle;Max_cycle;Signal;HPM_P1;HPM_P2
2021/04/26 00:03:23;;;;;;;5.10;2.97;;;;;;;6.40;48.81;99436.91;5125892;27;20532;-75
2021/04/26 00:08:10;;;;;;;3.90;2.87;;;;;;;6.37;49.20;99443.13;5189144;27;21029;-76
2021/04/26 00:12:59;;;;;;;4.60;2.83;;;;;;;6.37;49.12;99437.00;5125936;27;20556;-75
2021/04/26 00:17:49;;;;;;;5.77;3.33;;;;;;;6.32;48.67;99433.69;5125104;27;21039;-76
2021/04/26 00:22:38;;;;;;;3.53;2.70;;;;;;;6.32;48.65;99428.41;5125044;27;20533;-76
2021/04/26 00:27:25;;;;;;;5.17;2.70;;;;;;;6.27;48.31;99427.75;5127282;27;20537;-74
2021/04/26 00:31:56;;;;;;;4.07;3.20;;;;;;;6.17;49.08;99413.22;5126336;27;20988;-75
2021/04/26 00:35:07;;;;;;;3.90;2.80;;;;;;;6.07;48.71;99400.38;5125775;27;40541;-76
2021/04/26 00:37:35;;;;;;;2.97;2.50;;;;;;;6.16;48.64;99422.88;5125455;27;41922;-75
2021/04/26 00:40:02;;;;;;;3.80;2.67;;;;;;;6.12;48.45;99416.84;5125157;27;43449;-75
2021/04/26 00:42:44;;;;;;;4.30;2.90;;;;;;;6.06;48.14;99427.56;5126024;27;20583;-76
2021/04/26 00:47:15;;;;;;;7.57;3.07;;;;;;;6.05;49.19;99425.88;5126536;27;20522;-77
2021/04/26 00:50:53;;;;;;;3.73;2.97;;;;;;;6.03;48.73;99427.69;5126066;27;20534;-76
2021/04/26 00:54:11;;;;;;;3.30;2.43;;;;;;;5.99;48.46;99428.72;5127096;27;20525;-76
2021/04/26 00:59:00;;;;;;;4.53;2.60;;;;;;;5.97;48.65;99435.78;5126761;27;20529;-76
2021/04/26 01:02:11;;;;;;;4.07;3.03;;;;;;;5.95;48.79;99429.72;5126469;27;20559;-76
2021/04/26 01:05:51;;;;;;;5.03;3.40;;;;;;;5.93;48.68;99431.56;5125754;27;20918;-76
2021/04/26 01:09:01;;;;;;;4.77;2.40;;;;;;;5.82;48.56;99411.75;5127425;27;41333;-76
2021/04/26 01:11:47;;;;;;;3.17;2.60;;;;;;;5.87;48.66;99410.69;5125580;27;42129;-75
2021/04/26 01:14:26;;;;;;;4.73;3.07;;;;;;;5.83;49.38;99409.09;5125368;27;42737;-75
2021/04/26 01:16:59;;;;;;;4.67;2.77;;;;;;;5.74;49.37;99401.53;5124622;27;42865;-76
2021/04/26 01:19:55;;;;;;;3.20;2.90;;;;;;;5.75;49.15;99411.13;5124692;27;39105;-77
2021/04/26 01:22:55;;;;;;;2.63;2.30;;;;;;;5.71;49.07;99414.75;5105654;27;40453;-75
2021/04/26 01:25:25;;;;;;;6.77;2.33;;;;;;;5.59;49.36;99409.91;5095720;27;43335;-77
2021/04/26 01:28:23;;;;;;;4.60;2.73;;;;;;;5.57;50.43;99406.47;5117361;27;42262;-76
2021/04/26 01:30:57;;;;;;;3.83;3.33;;;;;;;5.44;50.15;99399.94;5125438;27;39348;-78
2021/04/26 01:33:43;;;;;;;3.73;2.80;;;;;;;5.40;49.77;99410.53;5124488;27;41295;-77
2021/04/26 01:36:15;;;;;;;2.63;2.37;;;;;;;5.33;49.63;99403.75;5125565;27;42096;-76
2021/04/26 01:39:15;;;;;;;2.63;2.27;;;;;;;5.25;49.72;99404.91;5146538;27;20557;-76
2021/04/26 01:42:17;;;;;;;3.00;2.70;;;;;;;5.17;50.07;99393.81;5125639;27;20532;-76
2021/04/26 01:46:46;;;;;;;3.10;2.00;;;;;;;5.07;49.85;99395.84;5188671;27;20556;-74
2021/04/26 01:51:35;;;;;;;4.07;1.90;;;;;;;4.94;49.80;99395.41;5125910;27;20533;-76
2021/04/26 01:56:26;;;;;;;4.00;2.60;;;;;;;4.67;50.36;99360.38;5126857;27;21032;-75
2021/04/26 02:00:58;;;;;;;4.40;2.43;;;;;;;4.67;50.35;99376.13;5125839;27;20528;-76
2021/04/26 02:04:19;;;;;;;5.13;2.77;;;;;;;4.59;50.52;99378.09;5126564;27;20530;-75
2021/04/26 02:07:07;;;;;;;2.90;2.40;;;;;;;4.53;50.39;99366.94;5121436;27;38857;-75
2021/04/26 02:09:56;;;;;;;4.20;2.40;;;;;;;4.45;50.66;99369.75;5126004;27;41031;-77
2021/04/26 02:12:43;;;;;;;2.73;2.40;;;;;;;4.40;50.61;99370.81;5126425;27;20550;-76
2021/04/26 02:15:13;;;;;;;6.57;2.73;;;;;;;4.28;50.50;99356.31;5119103;27;39419;-75
2021/04/26 02:17:41;;;;;;;4.47;2.50;;;;;;;4.31;50.54;99361.47;5125317;27;41465;-77
2021/04/26 02:20:11;;;;;;;4.43;2.90;;;;;;;4.26;50.90;99365.97;5125030;27;42155;-76
2021/04/26 02:22:54;;;;;;;2.93;2.13;;;;;;;4.17;50.84;99359.25;5145839;27;20565;-75
2021/04/26 02:27:25;;;;;;;2.97;2.50;;;;;;;4.14;50.69;99364.56;5126105;27;20517;-75
2021/04/26 02:30:43;;;;;;;3.17;2.37;;;;;;;4.04;50.87;99351.78;5146013;27;20536;-75
2021/04/26 02:35:35;;;;;;;3.03;2.60;;;;;;;3.98;52.19;99331.81;5188372;27;20518;-76
2021/04/26 02:38:54;;;;;;;5.07;3.67;;;;;;;3.94;54.10;99328.47;5126308;27;20541;-74
2021/04/26 02:43:28;;;;;;;4.70;3.07;;;;;;;3.90;54.52;99318.94;5126781;27;20530;-74
2021/04/26 02:47:01;;;;;;;4.30;3.17;;;;;;;3.90;54.39;99312.84;5146805;27;20573;-74
2021/04/26 02:49:30;;;;;;;4.10;3.70;;;;;;;3.88;54.76;99305.03;5141169;27;40318;-78
2021/04/26 02:52:00;;;;;;;6.73;3.40;;;;;;;3.80;54.63;99296.53;5146655;27;40795;-74
2021/04/26 02:54:28;;;;;;;4.10;3.00;;;;;;;3.85;55.47;99297.25;5145406;27;42213;-75
2021/04/26 02:59:20;;;;;;;4.47;3.07;;;;;;;3.81;55.64;99293.03;5126659;27;20995;-75
2021/04/26 03:04:11;;;;;;;5.17;3.13;;;;;;;3.76;55.05;99294.91;5125213;27;20530;-75
2021/04/26 03:09:01;;;;;;;3.43;2.77;;;;;;;3.70;55.31;99279.38;5126017;27;20996;-75
2021/04/26 03:13:49;;;;;;;4.17;2.40;;;;;;;3.70;55.36;99268.91;5126013;27;20535;-74
2021/04/26 03:18:38;;;;;;;5.13;3.03;;;;;;;3.53;55.07;99245.78;5125917;27;20541;-76
2021/04/26 03:23:14;;;;;;;5.87;2.80;;;;;;;3.65;55.27;99270.78;5167075;27;20537;-77
2021/04/26 03:28:06;;;;;;;3.83;2.73;;;;;;;3.48;55.32;99236.31;5125677;27;20529;-75
2021/04/26 03:31:30;;;;;;;4.90;3.67;;;;;;;3.57;55.38;99255.28;5167665;27;21060;-76
2021/04/26 03:34:45;;;;;;;3.10;2.40;;;;;;;3.54;55.27;99257.13;5154626;27;40549;-76
2021/04/26 03:37:15;;;;;;;6.30;3.77;;;;;;;3.51;55.71;99249.34;5149785;27;42569;-77
2021/04/26 03:39:57;;;;;;;3.70;2.77;;;;;;;3.50;55.50;99250.25;5144271;27;809477;-75
2021/04/26 03:42:25;;;;;;;4.50;2.90;;;;;;;3.44;55.25;99229.47;5146663;27;38497;-75
2021/04/26 03:44:52;;;;;;;4.83;2.67;;;;;;;3.48;55.54;99242.44;5147988;27;41450;-75
2021/04/26 03:47:53;;;;;;;4.83;2.63;;;;;;;3.44;55.25;99239.97;5111058;27;42178;-74
2021/04/26 03:50:48;;;;;;;3.57;2.60;;;;;;;3.41;55.44;99242.66;5127296;27;41961;-77
2021/04/26 03:53:28;;;;;;;3.40;2.20;;;;;;;3.38;55.45;99247.97;5147546;27;39575;-77
2021/04/26 03:56:10;;;;;;;3.57;2.60;;;;;;;3.29;55.92;99245.59;5149247;27;42273;-74
2021/04/26 03:58:38;;;;;;;3.77;2.73;;;;;;;3.18;55.90;99227.56;5144712;27;41445;-75
2021/04/26 04:01:06;;;;;;;6.17;2.70;;;;;;;3.25;55.86;99240.44;5127480;27;41679;-75
2021/04/26 04:03:34;;;;;;;4.10;2.60;;;;;;;3.25;55.88;99235.22;5146572;27;38663;-75
2021/04/26 04:06:04;;;;;;;3.70;2.47;;;;;;;3.24;55.92;99236.09;5128198;27;42325;-74
2021/04/26 04:08:50;;;;;;;4.13;2.67;;;;;;;3.23;55.59;99237.00;5147237;27;42188;-76
2021/04/26 04:11:41;;;;;;;4.53;2.70;;;;;;;3.23;55.35;99241.38;5098083;27;41099;-75
2021/04/26 04:14:31;;;;;;;3.93;2.57;;;;;;;3.20;55.39;99241.47;5132722;27;39183;-75
2021/04/26 04:17:03;;;;;;;5.93;2.90;;;;;;;3.18;55.57;99244.13;5128500;27;41862;-75
2021/04/26 04:19:30;;;;;;;4.37;3.00;;;;;;;3.13;56.15;99232.91;5144680;27;42739;-75
2021/04/26 04:21:59;;;;;;;3.67;2.70;;;;;;;3.15;55.90;99244.22;5128708;27;41087;-75
2021/04/26 04:24:27;;;;;;;7.20;2.80;;;;;;;3.15;55.86;99238.97;5127977;27;39448;-75
2021/04/26 04:26:55;;;;;;;8.10;3.43;;;;;;;3.16;55.84;99235.47;5146169;27;43666;-75
2021/04/26 04:29:23;;;;;;;5.30;3.10;;;;;;;3.18;55.87;99240.66;5144009;27;42727;-75
2021/04/26 04:32:00;;;;;;;4.07;2.53;;;;;;;3.14;55.87;99237.25;5149103;27;41407;-75
2021/04/26 04:34:46;;;;;;;4.23;2.63;;;;;;;3.10;55.88;99230.38;5167305;27;39103;-76
2021/04/26 04:37:45;;;;;;;11.33;3.03;;;;;;;3.18;56.06;99241.53;5167167;27;41485;-76
2021/04/26 04:40:31;;;;;;;5.70;2.80;;;;;;;3.22;55.84;99245.75;5167944;27;42254;-75
2021/04/26 04:43:04;;;;;;;4.03;3.20;;;;;;;3.28;55.66;99239.50;5148746;27;41831;-75
2021/04/26 04:45:44;;;;;;;4.43;2.67;;;;;;;3.32;55.67;99240.28;5148354;27;38867;-77
2021/04/26 04:48:34;;;;;;;5.23;3.00;;;;;;;3.42;55.42;99247.00;5152920;27;40766;-75
2021/04/26 04:51:04;;;;;;;5.00;2.47;;;;;;;3.47;54.95;99248.56;5135722;27;41884;-75
2021/04/26 04:53:32;;;;;;;3.20;2.53;;;;;;;3.50;54.95;99240.63;5134104;27;41837;-74
2021/04/26 04:55:59;;;;;;;4.93;2.80;;;;;;;3.60;54.99;99246.47;5135020;27;39157;-75
2021/04/26 04:58:37;;;;;;;7.17;2.87;;;;;;;3.64;54.94;99252.47;5134259;27;40963;-75
2021/04/26 05:01:05;;;;;;;3.83;2.60;;;;;;;3.42;54.72;99199.88;5126755;27;41393;-76
2021/04/26 05:03:58;;;;;;;8.10;2.67;;;;;;;3.77;54.87;99259.09;5118744;27;41037;-74
2021/04/26 05:06:44;;;;;;;4.83;2.77;;;;;;;3.84;54.88;99255.38;5153504;27;39580;-75
2021/04/26 05:09:37;;;;;;;3.70;2.83;;;;;;;3.90;54.44;99260.44;5117824;27;42321;-76
2021/04/26 05:12:23;;;;;;;3.80;3.03;;;;;;;3.97;54.48;99268.06;5132117;27;41678;-76
2021/04/26 05:14:51;;;;;;;4.17;2.47;;;;;;;4.06;54.36;99271.34;5132484;27;42338;-75
2021/04/26 05:17:20;;;;;;;4.63;3.07;;;;;;;4.02;53.86;99244.38;5125563;27;39554;-75
2021/04/26 05:19:47;;;;;;;5.87;2.77;;;;;;;4.27;54.10;99266.31;5113312;27;40951;-75
2021/04/26 05:22:14;;;;;;;4.73;3.00;;;;;;;4.35;53.82;99273.94;5131756;27;42898;-74
2021/04/26 05:24:42;;;;;;;3.70;2.73;;;;;;;4.42;53.61;99278.09;5113152;27;41771;-77
2021/04/26 05:27:09;;;;;;;4.60;3.00;;;;;;;4.42;53.57;99267.63;5120223;27;39997;-76
2021/04/26 05:29:36;;;;;;;4.77;3.73;;;;;;;4.58;53.30;99284.56;5133249;27;40526;-77
2021/04/26 05:32:04;;;;;;;6.57;4.60;;;;;;;4.62;53.14;99273.09;5134488;27;43426;-76
2021/04/26 05:34:31;;;;;;;6.47;3.30;;;;;;;4.83;53.14;99283.78;5133662;27;42990;-78
2021/04/26 05:36:59;;;;;;;3.57;3.00;;;;;;;4.85;52.79;99274.09;5134593;27;39141;-73
2021/04/26 05:39:27;;;;;;;6.53;3.37;;;;;;;5.00;52.71;99278.84;5133474;27;41409;-73
2021/04/26 05:41:54;;;;;;;6.90;3.13;;;;;;;5.15;52.75;99294.09;5152565;27;43043;-73
2021/04/26 05:44:22;;;;;;;4.23;3.20;;;;;;;5.28;52.42;99295.41;5134048;27;41816;-71
2021/04/26 05:47:09;;;;;;;3.90;2.70;;;;;;;5.51;51.91;99301.63;5134035;27;39720;-73
2021/04/26 05:49:37;;;;;;;3.37;3.07;;;;;;;5.68;51.77;99296.66;5151797;27;41471;-72
2021/04/26 05:52:05;;;;;;;4.23;3.00;;;;;;;5.80;51.71;99303.22;5152517;27;43078;-72
2021/04/26 05:54:32;;;;;;;6.00;3.63;;;;;;;5.92;51.16;99298.41;5151728;27;41954;-72
2021/04/26 05:56:59;;;;;;;6.37;3.27;;;;;;;6.13;50.88;99299.38;5142964;27;41332;-74
2021/04/26 05:59:26;;;;;;;3.70;3.03;;;;;;;6.35;50.52;99305.53;5112547;27;41452;-72
2021/04/26 06:01:53;;;;;;;3.77;2.80;;;;;;;6.43;49.94;99310.50;5110365;27;42818;-73
2021/04/26 06:04:20;;;;;;;3.67;3.03;;;;;;;6.62;49.81;99316.78;5145445;27;42077;-73
2021/04/26 06:06:48;;;;;;;7.20;3.00;;;;;;;6.82;49.31;99318.63;5144976;27;40223;-73
2021/04/26 06:09:15;;;;;;;8.80;3.70;;;;;;;7.05;48.49;99325.56;5131364;27;40902;-73
2021/04/26 06:11:42;;;;;;;5.53;3.10;;;;;;;7.68;47.01;99321.16;5132829;27;42848;-73
2021/04/26 06:14:09;;;;;;;4.83;3.30;;;;;;;8.39;45.71;99328.56;5151762;27;42444;-73
2021/04/26 06:16:37;;;;;;;8.37;5.77;;;;;;;8.69;44.71;99335.94;5152290;27;40609;-73
2021/04/26 06:19:04;;;;;;;7.00;5.00;;;;;;;8.70;45.38;99332.38;5133005;27;42305;-73
2021/04/26 06:21:32;;;;;;;4.33;2.93;;;;;;;8.48;45.05;99303.50;5120656;27;42113;-73
2021/04/26 06:24:00;;;;;;;9.23;3.10;;;;;;;8.82;44.89;99345.88;5111173;27;41208;-72
2021/04/26 06:26:27;;;;;;;4.57;3.07;;;;;;;9.06;44.46;99332.41;5128652;27;39280;-71
2021/04/26 06:28:54;;;;;;;4.23;2.87;;;;;;;9.31;43.85;99333.78;5111841;27;42749;-73
2021/04/26 06:31:21;;;;;;;5.00;2.97;;;;;;;9.61;43.00;99346.38;5129788;27;42151;-71
2021/04/26 06:33:48;;;;;;;4.20;3.43;;;;;;;10.23;42.25;99350.25;5120521;27;43405;-73
2021/04/26 06:36:15;;;;;;;5.80;2.63;;;;;;;10.81;40.19;99363.81;5112160;27;39556;-73
2021/04/26 06:38:43;;;;;;;5.77;2.97;;;;;;;11.07;39.97;99357.06;5128816;27;43069;-73
2021/04/26 06:41:10;;;;;;;4.43;2.73;;;;;;;11.03;39.14;99364.31;5130686;27;42450;-73
2021/04/26 06:43:37;;;;;;;3.73;2.57;;;;;;;10.77;39.04;99356.97;5110927;27;41501;-74
2021/04/26 06:46:04;;;;;;;6.37;4.77;;;;;;;10.59;39.52;99358.00;5130655;27;39631;-73
2021/04/26 06:48:31;;;;;;;5.20;4.40;;;;;;;10.48;39.69;99349.78;5129491;27;40839;-74
2021/04/26 06:50:58;;;;;;;5.03;2.63;;;;;;;10.53;39.13;99364.47;5128273;27;41945;-74
2021/04/26 06:53:25;;;;;;;2.83;2.40;;;;;;;10.61;39.37;99356.13;5130071;27;42427;-74
2021/04/26 06:55:53;;;;;;;2.77;2.07;;;;;;;10.66;38.82;99344.31;5126103;27;39362;-71
2021/04/26 06:58:20;;;;;;;3.60;2.70;;;;;;;10.89;37.89;99366.03;5109313;27;42452;-73
2021/04/26 07:00:47;;;;;;;3.23;2.50;;;;;;;11.16;37.52;99370.66;5117865;27;42537;-75
2021/04/26 07:03:15;;;;;;;3.40;2.40;;;;;;;11.55;36.94;99369.31;5125529;27;41624;-73
2021/04/26 07:05:42;;;;;;;4.17;2.47;;;;;;;11.80;36.55;99363.44;5109057;27;38484;-73
2021/04/26 07:08:09;;;;;;;4.13;2.77;;;;;;;12.02;37.32;99360.34;5126795;27;42528;-73
2021/04/26 07:10:36;;;;;;;2.47;2.00;;;;;;;12.11;36.54;99365.13;5127233;27;42122;-74
2021/04/26 07:13:04;;;;;;;2.63;2.43;;;;;;;12.12;35.06;99372.13;5128723;27;41656;-73
2021/04/26 07:15:31;;;;;;;3.40;2.13;;;;;;;13.33;35.06;99373.38;5111495;27;40171;-73
2021/04/26 07:17:58;;;;;;;5.40;2.50;;;;;;;14.83;32.53;99388.81;5131385;27;42377;-72
2021/04/26 07:20:25;;;;;;;5.97;2.30;;;;;;;15.86;30.38;99399.00;5130513;27;42432;-74
2021/04/26 07:22:52;;;;;;;4.43;2.10;;;;;;;16.34;29.30;99397.03;5128768;27;42608;-73
2021/04/26 07:25:19;;;;;;;4.63;2.37;;;;;;;16.12;28.67;99396.03;5111390;27;40194;-73
2021/04/26 07:27:46;;;;;;;2.20;1.70;;;;;;;16.06;28.86;99395.66;5130648;27;41440;-73
2021/04/26 07:30:17;;;;;;;2.93;2.20;;;;;;;16.04;29.15;99376.22;5131481;27;43604;-73
2021/04/26 07:32:44;;;;;;;2.97;2.10;;;;;;;16.16;28.45;99392.19;5129648;27;42710;-75
2021/04/26 07:35:13;;;;;;;4.03;1.83;;;;;;;16.50;30.00;99368.16;5131551;27;40097;-73
2021/04/26 07:37:42;;;;;;;3.10;2.00;;;;;;;17.05;27.91;99385.22;5130478;27;41312;-72
2021/04/26 07:40:12;;;;;;;2.40;1.87;;;;;;;17.81;28.17;99382.44;5131954;27;42084;-75
2021/04/26 07:42:41;;;;;;;12.93;10.40;;;;;;;18.58;24.91;99406.28;5148987;27;41874;-75
2021/04/26 07:45:10;;;;;;;8.40;4.70;;;;;;;19.66;25.36;99410.88;5150052;27;38943;-74
2021/04/26 07:47:38;;;;;;;3.03;2.10;;;;;;;20.18;23.40;99424.91;5148968;27;41315;-75
2021/04/26 07:50:06;;;;;;;3.90;2.40;;;;;;;20.16;22.37;99424.19;5130890;27;42874;-72
2021/04/26 07:52:34;;;;;;;4.17;2.20;;;;;;;20.63;21.27;99421.63;5148611;27;42089;-73
2021/04/26 07:55:01;;;;;;;5.03;2.20;;;;;;;21.63;21.48;99410.97;5150114;27;40683;-74
2021/04/26 07:57:30;;;;;;;3.67;2.00;;;;;;;22.75;19.57;99431.81;5148709;27;41166;-72
2021/04/26 08:00:30;;;;;;;3.63;1.90;;;;;;;22.90;19.23;99430.28;5108762;27;42729;-73
2021/04/26 08:03:19;;;;;;;5.40;2.07;;;;;;;22.64;20.00;99420.44;5092177;27;42956;-72
2021/04/26 08:06:06;;;;;;;2.33;1.57;;;;;;;22.88;19.85;99409.81;5081409;27;39850;-72
2021/04/26 08:08:53;;;;;;;1.93;1.70;;;;;;;23.18;19.18;99416.56;5070721;27;42589;-73
2021/04/26 08:11:41;;;;;;;2.97;2.00;;;;;;;23.57;18.96;99411.50;5104236;27;41869;-73
2021/04/26 08:14:28;;;;;;;2.10;1.77;;;;;;;23.31;18.07;99414.25;5064857;27;41989;-73
2021/04/26 08:17:16;;;;;;;9.37;7.47;;;;;;;22.96;18.77;99407.19;5091944;27;39520;-74
2021/04/26 08:20:06;;;;;;;3.53;2.00;;;;;;;22.89;19.67;99403.41;5092206;27;42530;-74
2021/04/26 08:22:53;;;;;;;2.40;1.60;;;;;;;23.67;18.75;99405.94;5106524;27;43005;-72
2021/04/26 08:25:41;;;;;;;2.57;1.73;;;;;;;25.17;17.79;99397.22;5067284;27;41927;-73
2021/04/26 08:28:29;;;;;;;2.63;1.70;;;;;;;27.04;15.75;99412.13;5110076;27;40583;-73
2021/04/26 08:31:16;;;;;;;3.27;1.63;;;;;;;28.58;14.69;99418.91;5112165;27;41402;-72
2021/04/26 08:34:04;;;;;;;3.07;1.40;;;;;;;29.35;13.19;99420.69;5098922;27;42040;-72
2021/04/26 08:36:52;;;;;;;1.93;1.43;;;;;;;29.23;13.40;99419.56;5067480;27;42032;-71
2021/04/26 08:39:39;;;;;;;3.03;1.70;;;;;;;28.79;13.30;99418.06;5047031;27;39989;-73
2021/04/26 08:42:26;;;;;;;2.43;1.60;;;;;;;29.03;13.67;99402.25;5074888;27;42482;-73
2021/04/26 08:45:14;;;;;;;1.83;1.30;;;;;;;30.15;13.33;99398.09;5061896;27;42671;-75
2021/04/26 08:48:03;;;;;;;2.23;1.37;;;;;;;31.47;12.31;99414.34;5102189;27;41816;-71
2021/04/26 08:50:51;;;;;;;2.63;1.60;;;;;;;32.04;12.34;99390.66;5073113;27;40763;-71
2021/04/26 08:53:39;;;;;;;2.63;1.50;;;;;;;33.10;11.74;99394.22;5046800;27;41775;-71
2021/04/26 08:56:26;;;;;;;2.27;1.47;;;;;;;33.79;10.94;99398.44;5088088;27;42526;-72
2021/04/26 08:59:14;;;;;;;1.83;1.17;;;;;;;33.59;10.77;99403.34;5089611;27;41853;-73
2021/04/26 09:02:04;;;;;;;2.23;1.20;;;;;;;33.32;9.94;99402.00;5073490;27;39909;-71
2021/04/26 09:04:34;;;;;;;2.47;1.60;;;;;;;33.01;10.31;99401.03;5130594;27;41411;-72
2021/04/26 09:07:03;;;;;;;5.00;1.50;;;;;;;32.64;10.90;99383.66;5105600;27;42064;-72
2021/04/26 09:09:39;;;;;;;2.30;1.17;;;;;;;32.18;11.36;99389.56;5113340;27;41662;-72
2021/04/26 09:12:23;;;;;;;1.67;1.47;;;;;;;31.32;11.21;99386.41;5113972;27;40796;-72
2021/04/26 09:14:52;;;;;;;2.07;1.83;;;;;;;30.73;11.85;99384.66;5112916;27;40799;-73
2021/04/26 09:17:34;;;;;;;1.97;1.40;;;;;;;30.64;12.45;99380.47;5128894;27;41454;-73
2021/04/26 09:20:21;;;;;;;3.60;1.13;;;;;;;31.52;12.33;99343.38;5133123;27;42256;-74
2021/04/26 09:22:50;;;;;;;1.60;1.50;;;;;;;32.14;11.88;99355.41;5131096;27;41030;-74
2021/04/26 09:25:27;;;;;;;1.53;1.10;;;;;;;32.21;11.60;99378.16;5150826;27;42331;-74
2021/04/26 09:27:57;;;;;;;4.73;1.60;;;;;;;32.32;11.08;99377.41;5150402;27;42580;-73
2021/04/26 09:30:45;;;;;;;2.87;1.30;;;;;;;33.14;10.50;99378.94;5132644;27;42542;-74
2021/04/26 09:33:28;;;;;;;2.30;1.40;;;;;;;33.70;10.66;99366.00;5126323;27;40014;-73
2021/04/26 09:36:05;;;;;;;3.90;1.70;;;;;;;33.41;9.82;99370.41;5128844;27;42440;-73
2021/04/26 09:38:34;;;;;;;2.37;1.30;;;;;;;32.77;9.87;99382.72;5129260;27;42651;-72
2021/04/26 09:41:24;;;;;;;1.70;1.57;;;;;;;31.88;10.57;99372.03;5129761;27;42246;-74
2021/04/26 09:44:06;;;;;;;1.47;1.10;;;;;;;31.62;10.98;99357.41;5112318;27;40668;-75
2021/04/26 09:46:39;;;;;;;2.60;1.37;;;;;;;32.25;11.56;99342.91;5111989;27;41193;-75
2021/04/26 09:49:11;;;;;;;7.67;1.97;;;;;;;33.09;10.78;99321.16;5130281;27;43399;-74
2021/04/26 09:51:40;;;;;;;2.20;1.33;;;;;;;34.08;9.72;99351.94;5139635;27;42745;-75
2021/04/26 09:54:07;;;;;;;2.30;1.37;;;;;;;34.48;9.91;99344.75;5132060;27;40368;-74
2021/04/26 09:56:40;;;;;;;1.90;1.40;;;;;;;34.71;9.53;99351.31;5131352;27;42303;-74
2021/04/26 09:59:09;;;;;;;4.07;1.30;;;;;;;34.92;9.25;99347.97;5132458;27;42663;-74
2021/04/26 10:01:37;;;;;;;1.57;1.47;;;;;;;34.51;9.47;99346.16;5130541;27;42401;-72
2021/04/26 10:04:06;;;;;;;2.03;1.20;;;;;;;33.68;9.50;99336.03;5133232;27;38920;-73
2021/04/26 10:06:34;;;;;;;1.27;1.17;;;;;;;32.40;10.24;99333.25;5131024;27;41323;-74
2021/04/26 10:09:04;;;;;;;3.00;1.30;;;;;;;31.43;10.82;99334.53;5149844;27;44490;-75
2021/04/26 10:11:33;;;;;;;1.43;1.33;;;;;;;31.69;11.16;99319.88;5132189;27;41667;-74
2021/04/26 10:14:03;;;;;;;2.20;1.20;;;;;;;31.97;11.33;99310.44;5132374;27;39836;-76
2021/04/26 10:16:38;;;;;;;7.00;6.30;;;;;;;31.88;10.91;99318.09;5130971;27;44166;-73
2021/04/26 10:19:06;;;;;;;7.07;3.03;;;;;;;31.56;11.55;99308.16;5151243;27;42665;-74
2021/04/26 10:21:35;;;;;;;3.83;1.40;;;;;;;31.32;11.08;99318.81;5149606;27;42228;-74
2021/04/26 10:24:17;;;;;;;2.03;1.40;;;;;;;30.98;11.59;99303.56;5115125;27;38849;-74
2021/04/26 10:26:48;;;;;;;4.60;1.43;;;;;;;31.31;11.38;99302.59;5114666;27;40856;-75
2021/04/26 10:29:19;;;;;;;2.93;1.40;;;;;;;31.57;10.89;99294.25;5131827;27;43027;-76
2021/04/26 10:32:12;;;;;;;3.20;1.40;;;;;;;31.94;10.57;99294.41;5149552;27;42906;-75
2021/04/26 10:35:09;;;;;;;1.97;1.33;;;;;;;32.95;10.36;99299.59;5114074;27;39828;-74
2021/04/26 10:37:36;;;;;;;2.10;1.33;;;;;;;33.50;9.49;99316.88;5148634;27;43083;-75
2021/04/26 10:40:15;;;;;;;1.80;1.63;;;;;;;34.10;9.35;99292.91;5131632;27;42716;-74
2021/04/26 10:42:44;;;;;;;1.60;1.27;;;;;;;34.70;8.88;99292.69;5142336;27;42879;-74
2021/04/26 10:45:27;;;;;;;3.37;1.90;;;;;;;35.04;9.21;99293.72;5112168;27;39138;-74
2021/04/26 10:48:12;;;;;;;2.97;1.57;;;;;;;34.68;10.08;99277.50;5128763;27;42324;-75
2021/04/26 10:50:49;;;;;;;2.60;1.43;;;;;;;34.56;8.95;99280.25;5110612;27;43127;-75
2021/04/26 10:53:16;;;;;;;3.50;2.77;;;;;;;34.25;9.13;99281.41;5110680;27;42600;-74
2021/04/26 10:55:54;;;;;;;2.27;1.60;;;;;;;34.58;9.96;99256.94;5112489;27;38844;-74
2021/04/26 10:58:34;;;;;;;1.77;1.37;;;;;;;35.36;8.81;99255.53;5149193;27;41920;-74
2021/04/26 11:01:02;;;;;;;1.67;1.47;;;;;;;35.29;8.83;99271.38;5131342;27;42726;-74
2021/04/26 11:03:40;;;;;;;1.80;1.33;;;;;;;34.58;9.96;99253.34;5131819;27;42218;-73
2021/04/26 11:06:16;;;;;;;1.47;1.10;;;;;;;34.28;10.58;99241.63;5148254;27;39899;-73
2021/04/26 11:08:54;;;;;;;1.67;1.40;;;;;;;34.59;9.01;99239.34;5130729;27;40488;-77
2021/04/26 11:11:43;;;;;;;2.70;1.57;;;;;;;34.80;8.88;99251.66;5149096;27;42380;-73
2021/04/26 11:14:20;;;;;;;1.40;1.27;;;;;;;35.25;8.35;99246.25;5131203;27;42734;-74
2021/04/26 11:17:04;;;;;;;1.47;1.23;;;;;;;35.51;7.87;99241.22;5131231;27;40211;-74
2021/04/26 11:19:34;;;;;;;2.30;1.30;;;;;;;35.77;7.76;99246.13;5130696;27;42311;-75
2021/04/26 11:22:02;;;;;;;2.13;1.50;;;;;;;35.50;8.10;99220.25;5149053;27;42453;-75
2021/04/26 11:25:02;;;;;;;2.73;1.40;;;;;;;35.13;9.82;99215.13;5125298;27;41476;-77
2021/04/26 11:27:30;;;;;;;2.20;1.33;;;;;;;33.82;9.20;99210.28;5109272;27;40663;-75
2021/04/26 11:30:21;;;;;;;2.33;1.20;;;;;;;32.90;9.41;99206.13;5128720;27;41765;-74
2021/04/26 11:33:04;;;;;;;1.77;1.40;;;;;;;33.08;9.65;99197.88;5126951;27;42845;-72
2021/04/26 11:35:33;;;;;;;1.80;1.17;;;;;;;33.97;8.66;99201.59;5137746;27;42849;-74
2021/04/26 11:38:01;;;;;;;3.33;1.37;;;;;;;34.19;9.14;99199.91;5131564;27;38873;-76
2021/04/26 11:40:30;;;;;;;1.20;1.10;;;;;;;34.31;9.27;99180.66;5131334;27;41223;-76
2021/04/26 11:43:05;;;;;;;1.40;1.10;;;;;;;34.72;8.70;99198.88;5130906;27;43322;-74
2021/04/26 11:45:39;;;;;;;1.93;1.03;;;;;;;35.16;7.45;99205.56;5127190;27;42200;-76
2021/04/26 11:48:19;;;;;;;1.30;1.20;;;;;;;35.43;8.04;99195.63;5110999;27;39175;-75
2021/04/26 11:50:47;;;;;;;2.73;1.20;;;;;;;35.67;8.14;99188.03;5120393;27;42335;-76
2021/04/26 11:53:24;;;;;;;2.23;1.40;;;;;;;36.05;8.27;99175.44;5148737;27;43400;-76
2021/04/26 11:56:11;;;;;;;3.30;1.20;;;;;;;36.55;7.97;99167.03;5127837;27;42224;-76
2021/04/26 11:58:40;;;;;;;1.47;1.33;;;;;;;37.01;7.29;99160.13;5126991;27;40148;-75
2021/04/26 12:01:09;;;;;;;2.07;1.40;;;;;;;37.06;7.34;99154.69;5110965;27;41415;-77
2021/04/26 12:03:52;;;;;;;2.63;1.40;;;;;;;37.12;7.74;99148.09;5132159;27;43257;-73
2021/04/26 12:06:20;;;;;;;1.20;1.00;;;;;;;37.33;7.58;99144.50;5113899;27;42406;-76
2021/04/26 12:08:48;;;;;;;1.47;1.20;;;;;;;37.99;7.51;99142.22;5118646;27;40066;-76
2021/04/26 12:11:19;;;;;;;2.50;1.10;;;;;;;38.72;6.47;99145.94;5133726;27;41497;-76
2021/04/26 12:14:05;;;;;;;1.77;1.10;;;;;;;39.14;6.86;99125.56;5134382;27;42178;-76
2021/04/26 12:16:32;;;;;;;3.53;1.43;;;;;;;39.47;6.64;99099.28;5142902;27;42173;-74
2021/04/26 12:19:01;;;;;;;1.87;1.30;;;;;;;39.95;7.43;99108.09;5113640;27;40081;-76
2021/04/26 12:21:29;;;;;;;1.73;1.20;;;;;;;40.35;6.99;99112.72;5112867;27;41220;-73
2021/04/26 12:23:56;;;;;;;1.87;1.40;;;;;;;40.25;7.14;99101.63;5095586;27;42176;-75
2021/04/26 12:26:23;;;;;;;1.30;1.20;;;;;;;40.03;6.72;99105.59;5111153;27;43111;-76
2021/04/26 12:28:51;;;;;;;1.70;1.10;;;;;;;40.19;6.86;99104.41;5132146;27;39752;-73
2021/04/26 12:31:19;;;;;;;3.07;1.00;;;;;;;39.76;6.31;99113.41;5133308;27;42512;-74
2021/04/26 12:33:46;;;;;;;1.30;1.20;;;;;;;39.26;6.81;99103.97;5133356;27;43338;-74
2021/04/26 12:36:14;;;;;;;2.10;1.20;;;;;;;39.23;7.01;99079.56;5116712;27;42444;-75
2021/04/26 12:38:48;;;;;;;2.23;1.53;;;;;;;39.16;6.48;99112.28;5116107;27;39516;-76
2021/04/26 12:41:18;;;;;;;1.80;1.03;;;;;;;38.94;6.76;99106.13;5151440;27;41474;-76
2021/04/26 12:43:51;;;;;;;3.53;1.30;;;;;;;38.94;7.32;99090.34;5134154;27;41424;-76
2021/04/26 12:46:19;;;;;;;3.13;1.30;;;;;;;39.43;6.98;99093.47;5116092;27;41246;-76
2021/04/26 12:48:46;;;;;;;1.60;1.17;;;;;;;39.84;6.93;99093.41;5136477;27;39826;-75
2021/04/26 12:51:31;;;;;;;1.13;1.03;;;;;;;39.93;6.00;99100.09;5113417;27;41006;-77
2021/04/26 12:54:09;;;;;;;3.87;1.60;;;;;;;39.82;5.88;99085.34;5148941;27;42665;-77
2021/04/26 12:56:36;;;;;;;1.40;1.27;;;;;;;39.80;6.55;99084.00;5123378;27;41388;-74
2021/04/26 12:59:04;;;;;;;1.53;1.03;;;;;;;39.84;6.76;99072.03;5130140;27;39744;-74
2021/04/26 13:01:31;;;;;;;1.30;0.97;;;;;;;39.91;6.67;99077.34;5125887;27;42658;-75
2021/04/26 13:03:59;;;;;;;2.13;1.10;;;;;;;40.24;6.06;99061.94;5151096;27;42636;-76
2021/04/26 13:06:29;;;;;;;1.30;1.20;;;;;;;40.14;6.18;99062.00;5133902;27;41307;-76
2021/04/26 13:08:59;;;;;;;3.90;3.50;;;;;;;40.26;6.20;99054.16;5116017;27;40363;-76
2021/04/26 13:11:32;;;;;;;2.80;1.40;;;;;;;40.04;6.31;99045.38;5132123;27;42146;-74
2021/04/26 13:14:01;;;;;;;1.57;1.10;;;;;;;40.08;6.25;99041.75;5132115;27;42662;-74